Time;durP1;ratioP1;P1;durP2;ratioP2;P2;SDS_P1;SDS_P2;PMS_P1;PMS_P2;Temp;Humidity;BMP_temperature;BMP_pressure;BME280_temperature;BME280_humidity;BME280_pressure;Samples;Min_cycle;Max_cycle;Signal;HPM_P1;HPM_P2
2022/09/07 00:01:50;;;;;;;;;1.25;1.25;;;;;19.75;69.40;101356.56;5081375;28;8815;-66
2022/09/07 00:04:19;;;;;;;;;3.25;2.00;;;;;19.70;69.85;101349.09;5073612;28;8874;-68
2022/09/07 00:06:46;;;;;;;;;1.75;1.25;;;;;19.74;69.95;101360.34;5073485;28;8937;-67
2022/09/07 00:09:12;;;;;;;;;2.75;1.75;;;;;19.75;69.94;101360.09;5073879;28;8939;-66
2022/09/07 00:11:39;;;;;;;;;3.00;3.00;;;;;19.76;69.71;101367.22;5073618;28;8832;-66
2022/09/07 00:14:06;;;;;;;;;4.25;3.00;;;;;19.74;69.88;101346.69;5073567;28;8943;-66
2022/09/07 00:16:33;;;;;;;;;2.25;2.25;;;;;19.70;70.03;101360.00;5073322;28;8821;-66
2022/09/07 00:19:02;;;;;;;;;2.00;2.00;;;;;19.73;70.10;101351.34;5073405;28;8824;-68
2022/09/07 00:21:53;;;;;;;;;1.00;1.00;;;;;19.61;70.31;101356.00;5073400;28;8807;-67
2022/09/07 00:25:03;;;;;;;;;1.00;0.50;;;;;19.53;70.15;101353.63;5073739;28;8942;-67
2022/09/07 00:28:12;;;;;;;;;1.25;1.25;;;;;19.58;70.29;101337.34;5073440;28;8921;-67
2022/09/07 00:30:41;;;;;;;;;1.00;0.75;;;;;19.55;69.93;101315.97;5073381;28;8892;-67
2022/09/07 00:33:08;;;;;;;;;2.00;2.00;;;;;19.45;70.19;101294.75;5073180;28;9559;-67
2022/09/07 00:35:39;;;;;;;;;1.00;1.00;;;;;19.41;70.20;101290.03;5073075;28;8827;-67
2022/09/07 00:38:06;;;;;;;;;2.25;1.75;;;;;19.41;70.60;101307.22;5073333;28;8883;-67
2022/09/07 00:40:33;;;;;;;;;0.75;0.75;;;;;19.44;70.64;101323.09;5089921;28;8835;-66
2022/09/07 00:43:00;;;;;;;;;0.25;0.25;;;;;19.44;70.63;101344.13;5093548;28;8876;-66
2022/09/07 00:45:26;;;;;;;;;1.00;1.00;;;;;19.47;70.51;101357.31;5093488;28;8934;-66
2022/09/07 00:48:05;;;;;;;;;2.50;2.00;;;;;19.48;70.72;101359.78;5091517;28;8901;-66
2022/09/07 00:50:38;;;;;;;;;0.25;0.25;;;;;19.47;70.60;101351.84;5093363;28;8863;-66
2022/09/07 00:53:54;;;;;;;;;2.75;1.75;;;;;19.38;70.84;101318.63;5093152;28;8813;-65
2022/09/07 00:56:23;;;;;;;;;1.00;1.00;;;;;19.27;70.72;101270.34;5040288;28;8818;-66
2022/09/07 00:58:50;;;;;;;;;1.00;1.00;;;;;19.14;70.79;101249.63;5051268;28;8868;-66
2022/09/07 01:01:17;;;;;;;;;1.00;1.00;;;;;19.02;71.13;101232.44;5054060;28;8818;-66
2022/09/07 01:03:49;;;;;;;;;1.00;1.00;;;;;19.03;71.35;101234.09;5072718;28;9551;-66
2022/09/07 01:06:29;;;;;;;;;1.00;1.00;;;;;19.02;70.99;101230.53;5071735;28;8938;-66
2022/09/07 01:09:02;;;;;;;;;0.00;0.00;;;;;19.09;71.42;101229.59;5072599;28;8811;-67
2022/09/07 01:11:32;;;;;;;;;0.00;0.00;;;;;19.14;70.79;101216.88;5072947;28;8835;-67
2022/09/07 01:14:02;;;;;;;;;0.00;0.00;;;;;19.08;70.84;101208.81;5072330;28;8898;-67
2022/09/07 01:16:53;;;;;;;;;1.00;1.00;;;;;18.96;71.10;101203.41;5072698;28;8819;-67
2022/09/07 01:19:25;;;;;;;;;0.50;0.50;;;;;18.85;71.04;101204.25;5073110;28;8831;-68
2022/09/07 01:22:40;;;;;;;;;0.00;0.00;;;;;18.68;71.10;101194.06;5072122;28;9646;-67
2022/09/07 01:25:18;;;;;;;;;1.00;1.00;;;;;18.60;71.40;101199.06;5058994;28;8843;-67
2022/09/07 01:28:09;;;;;;;;;0.00;0.00;;;;;18.64;71.90;101197.50;5072038;28;8944;-67
2022/09/07 01:30:38;;;;;;;;;0.50;0.00;;;;;18.71;71.96;101196.31;5072461;28;8811;-67
2022/09/07 01:33:18;;;;;;;;;0.00;0.00;;;;;18.83;71.74;101203.66;5073030;28;8831;-68
2022/09/07 01:36:25;;;;;;;;;0.00;0.00;;;;;18.76;70.86;101201.91;5070962;28;8896;-68
2022/09/07 01:38:55;;;;;;;;;0.00;0.00;;;;;18.70;71.16;101204.75;5072060;28;8823;-67
2022/09/07 01:41:34;;;;;;;;;0.25;0.00;;;;;18.69;71.39;101201.16;5071948;28;8827;-68
2022/09/07 01:44:04;;;;;;;;;0.00;0.00;;;;;18.70;71.70;101208.31;5071918;28;8834;-68
2022/09/07 01:46:41;;;;;;;;;0.00;0.00;;;;;18.75;72.03;101202.13;5071665;28;8827;-67
2022/09/07 01:49:30;;;;;;;;;0.00;0.00;;;;;18.83;72.11;101193.56;5083457;28;8805;-67
2022/09/07 01:52:06;;;;;;;;;0.00;0.00;;;;;18.93;72.06;101190.25;5051897;28;8948;-67
2022/09/07 01:55:01;;;;;;;;;1.00;1.00;;;;;19.01;72.04;101189.88;5051532;28;8861;-67
2022/09/07 01:57:37;;;;;;;;;0.00;0.00;;;;;18.98;71.86;101198.53;5051562;28;9499;-67
2022/09/07 02:00:09;;;;;;;;;0.00;0.00;;;;;18.98;71.92;101201.25;5089496;27;8891;-67
2022/09/07 02:02:47;;;;;;;;;0.00;0.00;;;;;18.94;72.11;101198.19;5051684;28;9519;-68
2022/09/07 02:06:00;;;;;;;;;0.00;0.00;;;;;18.95;72.04;101193.53;5051407;28;8834;-67
2022/09/07 02:08:42;;;;;;;;;0.00;0.00;;;;;18.98;72.10;101199.34;5050959;28;8814;-67
2022/09/07 02:11:33;;;;;;;;;0.00;0.00;;;;;19.06;71.84;101209.06;5051332;28;8837;-67
2022/09/07 02:14:06;;;;;;;;;0.00;0.00;;;;;19.10;71.79;101202.06;5081730;28;8917;-67
2022/09/07 02:16:38;;;;;;;;;0.00;0.00;;;;;19.10;71.85;101202.06;5091225;28;8834;-67
2022/09/07 02:19:12;;;;;;;;;0.00;0.00;;;;;19.10;71.84;101203.97;5091337;28;8839;-67
2022/09/07 02:21:43;;;;;;;;;0.00;0.00;;;;;19.11;72.15;101200.97;5091405;28;8843;-67
2022/09/07 02:24:25;;;;;;;;;0.00;0.00;;;;;19.09;72.25;101205.84;5091358;28;8885;-67
2022/09/07 02:26:53;;;;;;;;;2.00;0.00;;;;;19.06;72.31;101200.06;5091209;28;8923;-66
2022/09/07 02:29:20;;;;;;;;;0.00;0.00;;;;;19.09;72.67;101203.13;5089375;28;8852;-68
2022/09/07 02:31:47;;;;;;;;;1.00;1.00;;;;;19.13;72.62;101193.38;5091364;28;8874;-68
2022/09/07 02:34:13;;;;;;;;;0.00;0.00;;;;;19.15;72.96;101199.41;5090938;28;8836;-68
2022/09/07 02:36:44;;;;;;;;;0.25;0.00;;;;;19.14;72.87;101192.31;5091005;28;10282;-68
2022/09/07 02:39:10;;;;;;;;;0.00;0.00;;;;;19.16;72.92;101202.97;5091217;28;8843;-68
2022/09/07 02:41:43;;;;;;;;;1.00;1.00;;;;;19.12;72.75;101194.47;5091250;28;8817;-68
2022/09/07 02:44:15;;;;;;;;;0.00;0.00;;;;;19.15;72.88;101187.69;5090970;28;8863;-68
2022/09/07 02:46:50;;;;;;;;;0.00;0.00;;;;;19.18;72.49;101198.13;5072695;28;8902;-68
2022/09/07 02:49:32;;;;;;;;;0.00;0.00;;;;;19.20;72.56;101204.13;5070783;28;8807;-68
2022/09/07 02:52:24;;;;;;;;;0.00;0.00;;;;;19.22;72.49;101204.75;5070791;28;8823;-68
2022/09/07 02:54:57;;;;;;;;;0.00;0.00;;;;;19.23;72.64;101207.22;5070826;28;8885;-68
2022/09/07 02:57:32;;;;;;;;;0.00;0.00;;;;;19.25;72.52;101209.72;5070030;28;8823;-68
2022/09/07 03:00:10;;;;;;;;;2.00;0.00;;;;;19.23;72.81;101209.94;5070710;28;9622;-68
2022/09/07 03:02:50;;;;;;;;;0.00;0.00;;;;;19.23;72.73;101222.78;5070637;28;8831;-68
2022/09/07 03:05:24;;;;;;;;;1.00;1.00;;;;;19.23;72.75;101225.50;5070556;28;8823;-68
2022/09/07 03:07:58;;;;;;;;;0.00;0.00;;;;;19.24;72.89;101216.22;5068882;28;9526;-68
2022/09/07 03:10:25;;;;;;;;;0.00;0.00;;;;;19.24;72.99;101217.09;5070544;28;8815;-68
2022/09/07 03:12:51;;;;;;;;;0.00;0.00;;;;;19.23;72.63;101211.84;5070560;28;8811;-68
2022/09/07 03:15:22;;;;;;;;;0.00;0.00;;;;;19.18;72.79;101193.47;5070592;28;8842;-68
2022/09/07 03:17:48;;;;;;;;;0.00;0.00;;;;;19.17;72.88;101180.91;5070059;28;8849;-68
2022/09/07 03:20:16;;;;;;;;;0.00;0.00;;;;;19.16;72.72;101190.19;5070301;28;8839;-68
2022/09/07 03:22:46;;;;;;;;;0.00;0.00;;;;;19.15;72.62;101187.69;5080480;28;8861;-68
2022/09/07 03:25:14;;;;;;;;;0.25;0.25;;;;;19.14;73.01;101196.94;5090569;28;8839;-68
2022/09/07 03:27:41;;;;;;;;;0.00;0.00;;;;;19.13;72.89;101189.84;5090191;28;8879;-68
2022/09/07 03:30:09;;;;;;;;;1.25;1.00;;;;;19.11;72.93;101208.34;5091798;28;8813;-68
2022/09/07 03:32:37;;;;;;;;;0.00;0.00;;;;;19.07;72.81;101197.06;5094591;28;8839;-68
2022/09/07 03:35:06;;;;;;;;;0.00;0.00;;;;;19.03;72.91;101196.72;5094399;28;8889;-68
2022/09/07 03:37:36;;;;;;;;;0.00;0.00;;;;;19.02;72.71;101197.81;5092843;28;8840;-68
2022/09/07 03:40:06;;;;;;;;;1.00;1.00;;;;;19.00;72.77;101201.84;5094578;28;8809;-68
2022/09/07 03:42:32;;;;;;;;;1.50;1.00;;;;;18.97;72.74;101202.34;5094631;28;8813;-69
2022/09/07 03:44:59;;;;;;;;;0.50;0.50;;;;;18.94;73.21;101200.91;5094236;28;8832;-69
2022/09/07 03:47:25;;;;;;;;;0.75;0.25;;;;;18.93;72.90;101199.25;5094088;28;9552;-66
2022/09/07 03:49:52;;;;;;;;;0.25;0.25;;;;;18.93;73.00;101193.81;5093150;28;8824;-69
2022/09/07 03:52:18;;;;;;;;;0.00;0.00;;;;;18.93;72.95;101193.81;5090389;28;9515;-68
2022/09/07 03:54:45;;;;;;;;;0.00;0.00;;;;;18.90;72.85;101188.00;5073895;28;8838;-68
2022/09/07 03:57:12;;;;;;;;;0.50;0.50;;;;;18.89;72.60;101180.88;5074013;28;8966;-68
2022/09/07 03:59:38;;;;;;;;;1.00;1.00;;;;;18.88;72.87;101188.25;5073812;28;8851;-68
2022/09/07 04:02:04;;;;;;;;;0.00;0.00;;;;;18.87;73.00;101180.28;5073548;28;8819;-68
2022/09/07 04:04:31;;;;;;;;;0.50;0.50;;;;;18.86;72.80;101186.81;5093118;28;8825;-68
2022/09/07 04:06:57;;;;;;;;;0.75;0.75;;;;;18.83;72.79;101181.84;5093807;28;8836;-68
2022/09/07 04:09:24;;;;;;;;;1.00;1.00;;;;;18.80;72.81;101182.31;5093950;28;8941;-68
2022/09/07 04:11:50;;;;;;;;;0.75;0.75;;;;;18.78;72.88;101177.09;5093713;28;8922;-68
2022/09/07 04:14:17;;;;;;;;;1.00;1.00;;;;;18.75;72.94;101170.22;5090858;28;8894;-68
2022/09/07 04:16:44;;;;;;;;;1.00;1.00;;;;;18.74;73.10;101174.03;5093544;28;8931;-68
2022/09/07 04:19:10;;;;;;;;;0.00;0.00;;;;;18.71;72.95;101166.31;5093693;28;8902;-68
2022/09/07 04:21:37;;;;;;;;;1.00;1.00;;;;;18.71;72.82;101165.50;5093915;28;8939;-68
2022/09/07 04:24:04;;;;;;;;;1.00;1.00;;;;;18.69;72.91;101159.44;5092126;28;8932;-68
2022/09/07 04:26:33;;;;;;;;;1.00;1.00;;;;;18.66;72.99;101158.00;5093372;28;8844;-68
2022/09/07 04:29:00;;;;;;;;;0.50;0.00;;;;;18.66;72.87;101149.81;5093487;28;8821;-68
2022/09/07 04:31:27;;;;;;;;;0.75;0.75;;;;;18.65;73.01;101144.63;5093460;28;8831;-68
2022/09/07 04:33:55;;;;;;;;;1.00;1.00;;;;;18.64;72.56;101137.53;5092710;28;8823;-68
2022/09/07 04:36:23;;;;;;;;;0.25;0.25;;;;;18.63;73.15;101133.13;5075580;28;8847;-68
2022/09/07 04:38:55;;;;;;;;;2.00;1.00;;;;;18.62;72.98;101143.19;5073053;28;8955;-68
2022/09/07 04:41:22;;;;;;;;;2.00;0.75;;;;;18.59;72.96;101149.13;5072796;28;8831;-67
2022/09/07 04:43:53;;;;;;;;;2.00;2.00;;;;;18.57;73.18;101155.91;5073129;28;8821;-68
2022/09/07 04:46:24;;;;;;;;;1.00;1.00;;;;;18.56;73.03;101162.44;5073082;28;8908;-67
2022/09/07 04:48:56;;;;;;;;;0.50;0.50;;;;;18.54;73.20;101173.56;5073043;28;8821;-67
2022/09/07 04:51:26;;;;;;;;;0.00;0.00;;;;;18.52;73.30;101183.88;5072799;28;8825;-67
2022/09/07 04:53:54;;;;;;;;;1.00;1.00;;;;;18.48;73.31;101175.34;5072598;28;8906;-67
2022/09/07 04:56:21;;;;;;;;;2.75;0.50;;;;;18.44;73.62;101174.16;5072342;28;8971;-67
2022/09/07 04:58:48;;;;;;;;;1.25;1.00;;;;;18.44;73.43;101184.25;5072909;28;8817;-67
2022/09/07 05:01:18;;;;;;;;;1.75;1.75;;;;;18.41;73.80;101187.44;5072641;28;8864;-67
2022/09/07 05:03:45;;;;;;;;;1.25;1.00;;;;;18.37;73.56;101187.09;5072964;28;8805;-68
2022/09/07 05:06:12;;;;;;;;;0.50;0.50;;;;;18.33;73.72;101193.25;5072042;28;8833;-68
2022/09/07 05:08:41;;;;;;;;;1.50;1.50;;;;;18.30;73.98;101183.63;5072146;28;8833;-68
2022/09/07 05:11:09;;;;;;;;;1.00;1.00;;;;;18.27;73.31;101187.69;5072558;28;8886;-68
2022/09/07 05:13:36;;;;;;;;;1.75;1.75;;;;;18.27;73.69;101181.38;5071280;28;8955;-68
2022/09/07 05:16:17;;;;;;;;;1.00;1.00;;;;;18.28;73.52;101188.50;5072058;28;8962;-68
2022/09/07 05:18:48;;;;;;;;;1.00;1.00;;;;;18.29;73.47;101187.44;5051946;28;8825;-68
2022/09/07 05:21:27;;;;;;;;;1.00;1.00;;;;;18.28;73.12;101202.13;5052193;28;8899;-68
2022/09/07 05:23:55;;;;;;;;;1.50;1.25;;;;;18.27;72.97;101203.19;5051048;28;8838;-68
2022/09/07 05:26:23;;;;;;;;;1.00;1.00;;;;;18.25;73.15;101195.25;5053874;28;8915;-67
2022/09/07 05:28:50;;;;;;;;;2.00;1.75;;;;;18.26;73.44;101191.47;5092475;28;9549;-68
2022/09/07 05:31:19;;;;;;;;;1.00;0.50;;;;;18.25;73.15;101178.91;5089596;28;8836;-68
2022/09/07 05:33:48;;;;;;;;;1.75;1.75;;;;;18.24;73.02;101179.97;5092210;28;8816;-68
2022/09/07 05:36:34;;;;;;;;;1.00;1.00;;;;;18.26;73.22;101177.00;5091863;28;8966;-68
2022/09/07 05:39:02;;;;;;;;;1.00;1.00;;;;;18.24;72.94;101174.53;5092281;28;8801;-68
2022/09/07 05:41:29;;;;;;;;;0.50;0.50;;;;;18.22;73.19;101179.38;5090687;28;8816;-68
2022/09/07 05:43:55;;;;;;;;;0.75;0.75;;;;;18.20;73.21;101183.41;5091856;28;8947;-68
2022/09/07 05:46:42;;;;;;;;;0.00;0.00;;;;;18.20;73.31;101175.25;5091728;28;8939;-67
2022/09/07 05:49:08;;;;;;;;;1.25;1.25;;;;;18.20;73.36;101178.78;5090434;28;8954;-67
2022/09/07 05:51:36;;;;;;;;;3.00;1.25;;;;;18.20;73.21;101184.25;5092097;28;8816;-67
2022/09/07 05:54:02;;;;;;;;;1.00;1.00;;;;;18.19;73.28;101189.91;5091023;28;9670;-67
2022/09/07 05:56:29;;;;;;;;;1.00;1.00;;;;;18.19;73.35;101188.03;5073326;28;8841;-67
2022/09/07 05:58:55;;;;;;;;;1.50;1.00;;;;;18.21;73.25;101176.91;5071442;28;8830;-68
2022/09/07 06:01:22;;;;;;;;;2.00;1.00;;;;;18.19;73.29;101189.91;5071273;28;8846;-68
2022/09/07 06:03:48;;;;;;;;;1.00;1.00;;;;;18.16;73.44;101185.78;5071447;28;8879;-67
2022/09/07 06:06:17;;;;;;;;;1.25;1.00;;;;;18.19;73.92;101189.91;5071584;28;8854;-67
2022/09/07 06:08:46;;;;;;;;;0.75;0.75;;;;;18.23;73.59;101194.69;5080888;28;8817;-67
2022/09/07 06:11:16;;;;;;;;;1.00;1.00;;;;;18.27;73.66;101192.28;5075333;28;8845;-67
2022/09/07 06:13:43;;;;;;;;;0.00;0.00;;;;;18.29;73.33;101204.63;5070827;28;8805;-68
2022/09/07 06:16:11;;;;;;;;;1.00;1.00;;;;;18.29;73.71;101210.06;5071033;28;8925;-67
2022/09/07 06:18:42;;;;;;;;;3.00;1.00;;;;;18.32;73.79;101206.06;5070767;28;8825;-67
2022/09/07 06:21:10;;;;;;;;;2.00;2.00;;;;;18.37;73.30;101213.50;5070857;28;8825;-67
2022/09/07 06:23:39;;;;;;;;;1.00;1.00;;;;;18.35;73.44;101211.03;5081262;28;8859;-67
2022/09/07 06:26:06;;;;;;;;;1.00;1.00;;;;;18.36;73.70;101214.59;5070827;28;8861;-67
2022/09/07 06:28:35;;;;;;;;;2.50;1.00;;;;;18.35;73.66;101215.63;5070482;28;8822;-67
2022/09/07 06:31:13;;;;;;;;;1.00;1.00;;;;;18.32;73.60;101210.69;5071116;28;8835;-67
2022/09/07 06:33:41;;;;;;;;;2.75;2.75;;;;;18.29;73.92;101209.25;5090385;28;8879;-67
2022/09/07 06:36:22;;;;;;;;;3.00;3.00;;;;;18.25;73.58;101216.22;5090588;28;8929;-67
2022/09/07 06:38:50;;;;;;;;;2.00;2.00;;;;;18.23;73.81;101215.63;5090904;28;8832;-68
2022/09/07 06:41:21;;;;;;;;;2.50;2.50;;;;;18.22;74.11;101228.41;5090113;28;8824;-68
2022/09/07 06:44:08;;;;;;;;;3.00;2.00;;;;;18.21;74.00;101226.78;5063608;28;8954;-68
2022/09/07 06:46:34;;;;;;;;;2.25;2.25;;;;;18.21;74.16;101234.94;5073151;28;8820;-68
2022/09/07 06:49:22;;;;;;;;;3.00;3.00;;;;;18.21;74.09;101237.66;5090643;28;8955;-68
2022/09/07 06:51:49;;;;;;;;;3.50;3.50;;;;;18.20;74.21;101237.91;5090641;28;8820;-67
2022/09/07 06:54:16;;;;;;;;;3.75;3.75;;;;;18.19;74.20;101228.91;5090528;28;8843;-67
2022/09/07 06:57:07;;;;;;;;;4.00;3.25;;;;;18.23;74.48;101231.97;5087771;28;8915;-67
2022/09/07 06:59:36;;;;;;;;;4.75;4.00;;;;;18.25;74.72;101240.75;5089607;28;8864;-67
2022/09/07 07:02:03;;;;;;;;;4.75;4.75;;;;;18.20;74.19;101243.38;5090555;28;8813;-67
2022/09/07 07:04:29;;;;;;;;;5.50;4.75;;;;;18.19;74.38;101245.25;5089727;28;8892;-67
2022/09/07 07:06:56;;;;;;;;;3.00;3.00;;;;;18.23;74.68;101249.19;5088923;28;8845;-68
2022/09/07 07:09:23;;;;;;;;;3.50;3.50;;;;;18.29;74.69;101239.22;5090510;28;8955;-68
2022/09/07 07:11:49;;;;;;;;;4.00;3.00;;;;;18.29;74.69;101240.03;5090559;28;8797;-68
2022/09/07 07:14:16;;;;;;;;;3.50;3.50;;;;;18.30;74.68;101235.41;5090401;28;8809;-68
2022/09/07 07:16:43;;;;;;;;;6.00;5.50;;;;;18.31;74.67;101234.38;5086171;28;9014;-67
2022/09/07 07:19:10;;;;;;;;;8.25;5.00;;;;;18.25;74.80;101252.47;5070058;28;8811;-67
2022/09/07 07:21:36;;;;;;;;;4.75;4.00;;;;;18.25;75.08;101248.94;5070453;28;8839;-68
2022/09/07 07:24:23;;;;;;;;;5.00;5.00;;;;;18.28;75.03;101252.03;5070042;28;8815;-68
2022/09/07 07:26:49;;;;;;;;;4.00;4.00;;;;;18.29;75.06;101242.78;5072244;28;8990;-67
2022/09/07 07:29:15;;;;;;;;;8.00;6.25;;;;;18.29;75.02;101256.41;5090794;28;8827;-67
2022/09/07 07:31:45;;;;;;;;;6.25;5.00;;;;;18.29;74.92;101250.13;5090387;28;8813;-67
2022/09/07 07:34:12;;;;;;;;;7.00;5.00;;;;;18.31;75.21;101253.47;5089885;28;8816;-67
2022/09/07 07:36:38;;;;;;;;;7.00;6.25;;;;;18.36;75.36;101258.19;5088264;28;8829;-67
2022/09/07 07:39:05;;;;;;;;;6.25;5.75;;;;;18.35;75.51;101256.50;5069522;28;8827;-67
2022/09/07 07:41:32;;;;;;;;;4.50;4.25;;;;;18.34;75.56;101252.13;5069527;28;8869;-67
2022/09/07 07:44:19;;;;;;;;;6.25;6.25;;;;;18.39;75.60;101252.25;5069319;28;8909;-67
2022/09/07 07:46:47;;;;;;;;;7.25;5.75;;;;;18.45;75.33;101260.31;5069256;28;8846;-67
2022/09/07 07:49:14;;;;;;;;;8.00;8.00;;;;;18.43;75.06;101261.63;5069779;28;8831;-67
2022/09/07 07:51:41;;;;;;;;;5.00;5.00;;;;;18.40;75.23;101262.13;5069235;28;8892;-67
2022/09/07 07:54:28;;;;;;;;;7.75;6.50;;;;;18.42;75.29;101268.97;5069279;28;8835;-67
2022/09/07 07:56:54;;;;;;;;;9.00;8.00;;;;;18.44;75.10;101272.31;5069404;28;8827;-67
2022/09/07 07:59:21;;;;;;;;;7.75;7.75;;;;;18.48;75.30;101272.66;5069569;28;8819;-68
2022/09/07 08:01:47;;;;;;;;;5.75;5.75;;;;;18.50;75.57;101265.91;5069968;28;8823;-67
2022/09/07 08:04:14;;;;;;;;;7.75;7.00;;;;;18.53;75.38;101261.88;5069573;28;8829;-67
2022/09/07 08:06:41;;;;;;;;;7.00;6.00;;;;;18.54;75.44;101256.16;5069922;28;8879;-68
2022/09/07 08:09:08;;;;;;;;;6.00;6.00;;;;;18.63;75.27;101256.63;5069695;28;8829;-68
2022/09/07 08:11:34;;;;;;;;;9.75;9.75;;;;;18.69;75.16;101254.88;5069661;28;8935;-68
2022/09/07 08:14:05;;;;;;;;;5.50;4.75;;;;;18.73;75.16;101253.38;5080944;28;8901;-68
2022/09/07 08:16:32;;;;;;;;;12.25;10.00;;;;;18.77;75.28;101266.28;5091268;28;8860;-68
2022/09/07 08:19:00;;;;;;;;;11.00;11.00;;;;;18.76;74.98;101272.00;5093572;28;8942;-67
2022/09/07 08:21:27;;;;;;;;;15.25;14.00;;;;;18.66;74.75;101271.72;5093594;28;8809;-68
2022/09/07 08:23:54;;;;;;;;;17.25;16.00;;;;;18.63;75.09;101288.53;5092118;28;8840;-68
2022/09/07 08:26:20;;;;;;;;;11.00;11.00;;;;;18.72;74.87;101276.25;5093090;28;8841;-68
2022/09/07 08:28:47;;;;;;;;;15.00;14.25;;;;;18.79;74.92;101279.66;5091862;28;8824;-67
2022/09/07 08:31:15;;;;;;;;;12.00;12.00;;;;;18.86;74.81;101280.38;5093435;28;8820;-68
2022/09/07 08:33:43;;;;;;;;;16.75;15.00;;;;;18.93;74.91;101283.00;5093403;28;8856;-68
2022/09/07 08:36:18;;;;;;;;;15.00;15.00;;;;;18.96;74.19;101277.06;5093183;28;9549;-67
2022/09/07 08:38:45;;;;;;;;;15.67;15.67;;;;;18.97;74.43;101273.28;5091143;28;8847;-68
2022/09/07 08:41:21;;;;;;;;;13.25;13.00;;;;;19.01;74.21;101277.19;5092913;28;8886;-68
2022/09/07 08:44:01;;;;;;;;;12.50;12.25;;;;;19.11;74.02;101273.81;5093142;28;8848;-68
2022/09/07 08:46:37;;;;;;;;;13.33;13.33;;;;;19.14;73.72;101265.16;5091474;28;8816;-67
2022/09/07 08:49:06;;;;;;;;;19.00;13.75;;;;;19.15;73.49;101267.63;5092907;28;8910;-68
2022/09/07 08:51:42;;;;;;;;;13.50;13.00;;;;;19.17;73.13;101259.22;5091653;28;8913;-68
2022/09/07 08:54:15;;;;;;;;;10.50;10.50;;;;;19.22;73.04;101264.78;5092765;28;8923;-68
2022/09/07 08:56:44;;;;;;;;;17.50;16.50;;;;;19.12;73.01;101262.69;5091082;28;8866;-68
2022/09/07 08:59:37;;;;;;;;;15.00;15.00;;;;;19.15;73.04;101261.34;5092883;28;9283;-68
2022/09/07 09:02:13;;;;;;;;;12.50;12.50;;;;;19.23;73.03;101256.34;5092728;28;8816;-68
2022/09/07 09:04:59;;;;;;;;;15.25;14.50;;;;;19.34;73.05;101259.31;5092815;28;8805;-68
2022/09/07 09:07:58;;;;;;;;;13.00;13.00;;;;;19.41;73.14;101260.81;5089691;28;8882;-68
2022/09/07 09:10:45;;;;;;;;;12.25;11.00;;;;;19.43;72.61;101261.41;5092482;28;8801;-67
2022/09/07 09:13:29;;;;;;;;;12.25;12.00;;;;;19.51;72.69;101265.66;5092463;28;8829;-67
2022/09/07 09:16:03;;;;;;;;;14.75;14.75;;;;;19.55;72.66;101269.53;5092258;28;8836;-67
2022/09/07 09:18:49;;;;;;;;;12.25;12.00;;;;;19.61;72.36;101268.63;5090704;28;8832;-67
2022/09/07 09:21:17;;;;;;;;;13.50;11.25;;;;;19.65;72.32;101269.78;5092456;28;8840;-67
2022/09/07 09:23:47;;;;;;;;;12.25;12.25;;;;;19.72;71.84;101264.97;5092417;28;8813;-67
2022/09/07 09:26:22;;;;;;;;;11.50;11.50;;;;;19.76;71.47;101255.22;5090637;28;8812;-68
2022/09/07 09:28:49;;;;;;;;;10.50;10.50;;;;;19.83;71.25;101265.19;5091204;28;8820;-68
2022/09/07 09:31:22;;;;;;;;;11.50;11.50;;;;;19.87;71.16;101260.88;5090978;28;8812;-67
2022/09/07 09:34:04;;;;;;;;;9.00;9.00;;;;;19.94;71.10;101259.66;5092440;28;8909;-68
2022/09/07 09:36:43;;;;;;;;;7.50;7.00;;;;;20.00;70.98;101257.81;5090412;28;8854;-68
2022/09/07 09:39:28;;;;;;;;;9.25;9.25;;;;;19.99;70.86;101267.13;5091892;28;8827;-68
2022/09/07 09:41:58;;;;;;;;;10.75;9.75;;;;;20.01;70.60;101270.41;5091645;28;8816;-68
2022/09/07 09:44:31;;;;;;;;;10.50;10.50;;;;;20.05;70.35;101270.75;5091864;28;9603;-68
2022/09/07 09:47:00;;;;;;;;;15.25;15.25;;;;;20.05;70.06;101274.31;5090074;28;8878;-68
2022/09/07 09:49:46;;;;;;;;;10.25;10.00;;;;;20.06;69.84;101267.78;5091968;28;8820;-68
2022/09/07 09:52:19;;;;;;;;;9.00;8.00;;;;;20.13;69.71;101273.06;5091879;28;8831;-67
2022/09/07 09:54:56;;;;;;;;;11.00;8.00;;;;;20.18;69.71;101267.72;5091442;28;8829;-67
2022/09/07 09:57:57;;;;;;;;;10.75;10.00;;;;;20.15;69.45;101266.31;5091128;28;8833;-67
2022/09/07 10:00:53;;;;;;;;;7.00;7.00;;;;;20.20;69.38;101266.38;5091474;28;9556;-68
2022/09/07 10:03:40;;;;;;;;;6.00;6.00;;;;;20.24;69.41;101262.06;5091354;28;8843;-68
2022/09/07 10:06:27;;;;;;;;;11.00;9.50;;;;;20.27;68.74;101260.75;5089587;28;8817;-68
2022/09/07 10:09:01;;;;;;;;;10.00;10.00;;;;;20.32;68.47;101249.91;5091227;28;8833;-68
2022/09/07 10:11:41;;;;;;;;;6.25;6.25;;;;;20.48;68.62;101264.63;5089488;28;8873;-68
2022/09/07 10:14:31;;;;;;;;;10.50;10.50;;;;;20.54;67.96;101258.22;5070977;28;8827;-67
2022/09/07 10:17:00;;;;;;;;;8.50;8.00;;;;;20.62;68.13;101262.41;5070935;28;8957;-67
2022/09/07 10:19:36;;;;;;;;;15.50;10.75;;;;;20.57;67.88;101260.44;5070917;28;8836;-67
2022/09/07 10:22:19;;;;;;;;;10.75;10.75;;;;;20.57;67.59;101265.06;5075694;28;8831;-67
2022/09/07 10:24:46;;;;;;;;;9.00;8.00;;;;;20.62;67.86;101262.41;5090905;28;8838;-67
2022/09/07 10:27:39;;;;;;;;;9.25;9.25;;;;;20.53;67.36;101262.00;5089369;28;8961;-67
2022/09/07 10:30:13;;;;;;;;;7.00;7.00;;;;;20.42;66.86;101260.19;5089323;28;8840;-67
2022/09/07 10:32:52;;;;;;;;;6.75;6.75;;;;;20.37;66.72;101258.16;5090897;28;8805;-67
2022/09/07 10:35:26;;;;;;;;;5.00;5.00;;;;;20.38;66.39;101256.28;5090916;28;8871;-67
2022/09/07 10:38:14;;;;;;;;;4.75;4.75;;;;;20.53;66.63;101261.19;5084695;28;8830;-67
2022/09/07 10:40:51;;;;;;;;;6.75;6.50;;;;;20.59;66.13;101265.66;5070421;28;8843;-67
2022/09/07 10:43:43;;;;;;;;;3.50;3.50;;;;;20.62;65.61;101263.25;5070790;28;8823;-67
2022/09/07 10:46:40;;;;;;;;;4.00;3.00;;;;;20.67;65.63;101257.84;5070174;28;8866;-67
2022/09/07 10:49:33;;;;;;;;;2.75;2.75;;;;;20.73;65.29;101256.84;5070309;28;8815;-67
2022/09/07 10:52:16;;;;;;;;;5.50;5.50;;;;;20.69;65.55;101252.13;5070458;28;8827;-67
2022/09/07 10:54:45;;;;;;;;;7.00;3.75;;;;;20.63;65.41;101248.50;5070309;28;8820;-67
2022/09/07 10:57:44;;;;;;;;;3.75;3.75;;;;;20.68;65.16;101245.00;5070022;28;8874;-67
2022/09/07 11:00:17;;;;;;;;;4.50;4.50;;;;;20.65;64.78;101240.84;5070460;28;8813;-67
2022/09/07 11:03:17;;;;;;;;;4.50;4.50;;;;;20.73;64.33;101247.81;5070219;28;8851;-67
2022/09/07 11:06:16;;;;;;;;;4.00;4.00;;;;;20.86;63.96;101250.16;5070329;28;8840;-67
2022/09/07 11:08:55;;;;;;;;;5.00;5.00;;;;;20.98;63.98;101241.84;5069980;28;8820;-67
2022/09/07 11:11:58;;;;;;;;;5.75;5.75;;;;;21.05;63.61;101244.41;5070289;28;8860;-67
2022/09/07 11:14:35;;;;;;;;;4.75;4.75;;;;;21.07;63.02;101245.00;5070182;28;8821;-67
2022/09/07 11:17:11;;;;;;;;;5.00;5.00;;;;;21.13;62.87;101242.03;5069699;28;8852;-68
2022/09/07 11:19:48;;;;;;;;;4.00;4.00;;;;;21.20;62.97;101237.22;5049981;28;8805;-67
2022/09/07 11:22:26;;;;;;;;;6.00;4.25;;;;;21.24;62.98;101238.34;5049900;28;9562;-67
2022/09/07 11:25:03;;;;;;;;;3.25;3.25;;;;;21.19;62.88;101235.56;5059397;28;8902;-67
2022/09/07 11:27:56;;;;;;;;;3.00;3.00;;;;;21.17;62.19;101245.94;5069946;28;8823;-67
2022/09/07 11:30:30;;;;;;;;;3.00;2.00;;;;;21.10;62.03;101248.03;5068964;28;8827;-67
2022/09/07 11:33:02;;;;;;;;;5.75;5.75;;;;;21.10;62.14;101242.53;5069818;28;8819;-67
2022/09/07 11:35:50;;;;;;;;;4.00;4.00;;;;;21.12;61.99;101245.06;5072799;28;8819;-68
2022/09/07 11:38:32;;;;;;;;;4.75;3.00;;;;;21.14;61.77;101248.34;5069398;28;8816;-67
2022/09/07 11:41:13;;;;;;;;;3.75;3.75;;;;;20.98;61.50;101237.22;5070048;28;8831;-66
2022/09/07 11:43:45;;;;;;;;;1.50;1.50;;;;;20.92;61.00;101240.97;5069911;28;9592;-66
2022/09/07 11:46:37;;;;;;;;;1.00;1.00;;;;;20.95;61.30;101245.09;5069362;28;8824;-66
2022/09/07 11:49:11;;;;;;;;;2.25;2.25;;;;;21.01;61.16;101235.03;5061697;28;8825;-66
2022/09/07 11:51:46;;;;;;;;;1.25;1.00;;;;;21.13;61.06;101224.78;5072110;28;8805;-66
2022/09/07 11:54:37;;;;;;;;;2.00;2.00;;;;;21.27;60.89;101227.97;5074273;28;8829;-66
2022/09/07 11:57:25;;;;;;;;;0.00;0.00;;;;;21.40;60.44;101230.34;5077430;28;9492;-66
2022/09/07 12:00:09;;;;;;;;;2.75;2.75;;;;;21.45;59.27;101223.00;5073723;28;8838;-66
2022/09/07 12:02:36;;;;;;;;;1.25;1.25;;;;;21.59;58.63;101225.34;5073652;28;8847;-66
2022/09/07 12:05:53;;;;;;;;;2.00;2.00;;;;;21.69;58.07;101234.50;5076480;28;8820;-65